createdAt,value
2023-05-02T00:02:17.310Z,63.00
2023-05-02T00:04:44.208Z,63.00
2023-05-02T00:07:12.380Z,63.00
2023-05-02T00:09:39.138Z,63.30
2023-05-02T00:12:07.205Z,63.40
2023-05-02T00:14:33.973Z,63.50
2023-05-02T00:17:01.894Z,63.50
2023-05-02T00:19:32.346Z,63.60
2023-05-02T00:22:00.264Z,63.60
2023-05-02T00:24:36.344Z,63.80
2023-05-02T00:27:04.685Z,63.80
2023-05-02T00:29:31.478Z,63.90
2023-05-02T00:31:58.175Z,63.90
2023-05-02T00:34:29.836Z,63.40
2023-05-02T00:36:56.587Z,63.80
2023-05-02T00:39:23.417Z,63.80
2023-05-02T00:42:00.280Z,63.90
2023-05-02T00:44:27.144Z,63.80
2023-05-02T00:46:57.269Z,64.00
2023-05-02T00:49:24.218Z,64.20
2023-05-02T00:51:51.051Z,64.30
2023-05-02T00:54:18.959Z,64.50
2023-05-02T00:56:45.834Z,64.70
2023-05-02T00:59:14.849Z,64.90
2023-05-02T01:02:00.685Z,65.20
2023-05-02T01:04:48.153Z,65.40
2023-05-02T01:07:36.462Z,65.50
2023-05-02T01:10:15.137Z,65.90
2023-05-02T01:13:27.987Z,66.80
2023-05-02T01:15:57.956Z,67.60
2023-05-02T01:18:27.556Z,68.00
2023-05-02T01:21:01.157Z,68.30
2023-05-02T01:23:30.774Z,69.10
2023-05-02T01:26:17.600Z,69.20
2023-05-02T01:28:56.236Z,70.10
2023-05-02T01:31:25.174Z,70.70
2023-05-02T01:33:53.444Z,70.90
2023-05-02T01:36:21.077Z,71.30
2023-05-02T01:38:50.482Z,72.00
2023-05-02T01:41:18.253Z,72.40
2023-05-02T01:43:47.674Z,72.70
2023-05-02T01:46:14.977Z,73.30
2023-05-02T01:48:47.287Z,73.40
2023-05-02T01:51:19.764Z,74.00
2023-05-02T01:53:49.367Z,74.50
2023-05-02T01:56:20.420Z,74.60
2023-05-02T01:58:49.507Z,74.90
2023-05-02T02:01:20.004Z,75.10
2023-05-02T02:03:48.336Z,75.70
2023-05-02T02:06:19.635Z,76.20
2023-05-02T02:08:49.604Z,77.00
2023-05-02T02:11:21.409Z,77.40
2023-05-02T02:13:52.986Z,77.80
2023-05-02T02:16:30.093Z,78.00
2023-05-02T02:19:02.734Z,78.50
2023-05-02T02:21:32.677Z,79.10
2023-05-02T02:24:03.818Z,79.20
2023-05-02T02:26:31.812Z,79.60
2023-05-02T02:28:59.933Z,80.10
2023-05-02T02:31:44.863Z,80.70
2023-05-02T02:34:13.048Z,81.50
2023-05-02T02:36:48.512Z,82.00
2023-05-02T02:40:01.274Z,83.10
2023-05-02T02:42:48.417Z,83.80
2023-05-02T02:45:34.651Z,84.40
2023-05-02T02:48:11.141Z,85.70
2023-05-02T02:51:09.360Z,86.70
2023-05-02T02:54:00.166Z,88.10
2023-05-02T02:56:40.071Z,89.40
2023-05-02T02:59:19.425Z,90.00
2023-05-02T03:01:56.763Z,90.50
2023-05-02T03:04:27.307Z,90.80
2023-05-02T03:06:55.621Z,91.30
2023-05-02T03:09:25.646Z,91.60
2023-05-02T03:11:54.726Z,92.10
2023-05-02T03:14:21.969Z,92.50
2023-05-02T03:16:49.880Z,93.30
2023-05-02T03:19:16.545Z,93.70
2023-05-02T03:21:43.211Z,94.10
2023-05-02T03:24:09.861Z,94.80
2023-05-02T03:26:36.577Z,95.00
2023-05-02T03:29:03.223Z,95.20
2023-05-02T03:31:29.941Z,95.80
2023-05-02T03:33:56.655Z,96.40
2023-05-02T03:36:23.493Z,96.80
2023-05-02T03:38:52.205Z,97.00
2023-05-02T03:41:20.110Z,97.70
2023-05-02T03:43:47.849Z,98.20
2023-05-02T03:46:15.851Z,98.20
2023-05-02T03:48:42.720Z,98.70
2023-05-02T03:51:10.726Z,98.90
2023-05-02T03:53:37.652Z,99.70
2023-05-02T03:56:06.830Z,99.90
2023-05-02T03:58:35.317Z,99.90
2023-05-02T04:01:02.564Z,99.90
2023-05-02T04:03:30.154Z,99.90
2023-05-02T04:05:56.962Z,99.90
2023-05-02T04:08:24.187Z,99.90
2023-05-02T04:10:51.653Z,99.90
2023-05-02T04:13:18.412Z,99.90
2023-05-02T04:15:46.482Z,99.90
2023-05-02T04:18:13.257Z,99.90
2023-05-02T04:20:43.571Z,99.90
2023-05-02T04:23:13.129Z,99.90
2023-05-02T04:25:40.905Z,99.90
2023-05-02T04:28:07.649Z,99.90
2023-05-02T04:30:34.436Z,99.90
2023-05-02T04:33:01.188Z,99.90
2023-05-02T04:35:27.935Z,99.90
2023-05-02T04:37:54.628Z,99.90
2023-05-02T04:40:21.285Z,99.90
2023-05-02T04:42:47.987Z,99.90
2023-05-02T04:45:14.743Z,99.90
2023-05-02T04:47:41.501Z,99.90
2023-05-02T04:50:10.016Z,99.90
2023-05-02T04:52:36.740Z,99.90
2023-05-02T04:55:03.980Z,99.90
2023-05-02T04:57:31.940Z,99.90
2023-05-02T05:00:00.281Z,99.90
2023-05-02T05:02:28.866Z,99.90
2023-05-02T05:04:56.815Z,99.90
2023-05-02T05:07:24.444Z,99.90
2023-05-02T05:09:53.159Z,99.90
2023-05-02T05:12:20.147Z,99.90
2023-05-02T05:14:46.875Z,99.90
2023-05-02T05:17:13.566Z,99.90
2023-05-02T05:19:40.240Z,99.90
2023-05-02T05:22:06.934Z,99.90
2023-05-02T05:24:33.624Z,99.90
2023-05-02T05:27:00.277Z,99.90
2023-05-02T05:29:26.992Z,99.90
2023-05-02T05:31:53.775Z,99.90
2023-05-02T05:34:23.349Z,99.90
2023-05-02T05:36:50.119Z,99.90
2023-05-02T05:39:16.850Z,99.90
2023-05-02T05:41:43.616Z,99.90
2023-05-02T05:44:10.490Z,99.90
2023-05-02T05:46:37.159Z,99.90
2023-05-02T05:49:03.982Z,99.90
2023-05-02T05:51:30.713Z,99.90
2023-05-02T05:53:57.378Z,99.90
2023-05-02T05:56:24.556Z,99.90
2023-05-02T05:58:51.247Z,99.90
2023-05-02T06:01:19.208Z,99.90
2023-05-02T06:03:45.953Z,99.90
2023-05-02T06:06:12.831Z,99.90
2023-05-02T06:08:39.804Z,99.90
2023-05-02T06:11:10.843Z,99.90
2023-05-02T06:13:38.163Z,99.90
2023-05-02T06:16:05.680Z,99.90
2023-05-02T06:18:32.425Z,99.90
2023-05-02T06:21:05.068Z,99.90
2023-05-02T06:23:32.288Z,99.90
2023-05-02T06:26:00.235Z,99.90
2023-05-02T06:28:27.165Z,99.90
2023-05-02T06:31:05.796Z,99.90
2023-05-02T06:33:33.536Z,99.90
2023-05-02T06:36:01.921Z,99.90
2023-05-02T06:38:29.821Z,99.90
2023-05-02T06:40:57.038Z,99.90
2023-05-02T06:43:24.294Z,99.90
2023-05-02T06:45:54.058Z,99.90
2023-05-02T06:48:20.795Z,99.90
2023-05-02T06:50:49.499Z,99.90
2023-05-02T06:53:17.768Z,99.90
2023-05-02T06:55:48.488Z,99.90
2023-05-02T06:58:17.738Z,99.90
2023-05-02T07:00:47.539Z,99.90
2023-05-02T07:03:16.597Z,99.90
2023-05-02T07:05:43.316Z,99.90
2023-05-02T07:08:10.011Z,99.90
2023-05-02T07:10:37.043Z,99.90
2023-05-02T07:13:05.178Z,99.90
2023-05-02T07:15:32.751Z,99.90
2023-05-02T07:18:01.198Z,99.90
2023-05-02T07:20:27.942Z,99.90
2023-05-02T07:22:54.798Z,99.90
2023-05-02T07:25:21.644Z,99.90
2023-05-02T07:27:48.958Z,99.90
2023-05-02T07:30:17.011Z,99.90
2023-05-02T07:32:45.382Z,99.90
2023-05-02T07:35:24.858Z,99.90
2023-05-02T07:37:51.729Z,99.90
2023-05-02T07:40:21.998Z,99.90
2023-05-02T07:42:51.220Z,99.90
2023-05-02T07:45:19.308Z,99.90
2023-05-02T07:47:46.700Z,99.90
2023-05-02T07:50:13.484Z,99.90
2023-05-02T07:52:40.244Z,99.90
2023-05-02T07:55:07.265Z,99.90
2023-05-02T07:57:33.988Z,99.90
2023-05-02T08:00:00.933Z,99.90
2023-05-02T08:02:28.178Z,99.90
2023-05-02T08:04:56.305Z,99.90
2023-05-02T08:07:23.286Z,99.90
2023-05-02T08:09:49.996Z,99.90
2023-05-02T08:12:16.659Z,99.90
2023-05-02T08:14:44.655Z,99.90
2023-05-02T08:17:12.553Z,99.90
2023-05-02T08:19:40.375Z,99.90
2023-05-02T08:22:07.284Z,99.90
2023-05-02T08:24:35.441Z,99.90
2023-05-02T08:27:05.988Z,99.90
2023-05-02T08:29:35.196Z,99.90
2023-05-02T08:32:03.888Z,99.90
2023-05-02T08:34:32.616Z,99.90
2023-05-02T08:36:59.680Z,99.90
2023-05-02T08:39:26.318Z,99.90
2023-05-02T08:41:53.159Z,99.90
2023-05-02T08:44:20.194Z,99.90
2023-05-02T08:46:49.893Z,99.90
2023-05-02T08:49:18.268Z,99.90
2023-05-02T08:51:46.100Z,99.90
2023-05-02T08:54:17.181Z,99.90
2023-05-02T08:56:44.076Z,99.90
2023-05-02T08:59:10.863Z,99.90
2023-05-02T09:01:39.490Z,99.90
2023-05-02T09:04:08.866Z,99.90
2023-05-02T09:06:36.619Z,99.90
2023-05-02T09:09:03.387Z,99.90
2023-05-02T09:11:31.489Z,99.90
2023-05-02T09:13:58.337Z,99.90
2023-05-02T09:16:34.159Z,99.90
2023-05-02T09:19:02.196Z,99.90
2023-05-02T09:21:40.161Z,99.90
2023-05-02T09:24:22.315Z,99.90
2023-05-02T09:27:05.044Z,99.90
2023-05-02T09:29:33.790Z,99.90
2023-05-02T09:32:00.584Z,99.90
2023-05-02T09:34:27.354Z,99.90
2023-05-02T09:36:54.783Z,99.90
2023-05-02T09:39:28.784Z,99.90
2023-05-02T09:41:55.794Z,99.90
2023-05-02T09:44:26.271Z,99.90
2023-05-02T09:46:56.755Z,99.90
2023-05-02T09:49:40.374Z,99.90
2023-05-02T09:52:18.629Z,99.90
2023-05-02T09:54:45.473Z,99.90
2023-05-02T09:57:12.164Z,99.90
2023-05-02T09:59:40.862Z,99.90
2023-05-02T10:02:08.434Z,99.90
2023-05-02T10:04:37.521Z,99.90
2023-05-02T10:07:04.548Z,99.90
2023-05-02T10:09:35.882Z,99.90
2023-05-02T10:12:05.573Z,99.90
2023-05-02T10:14:39.254Z,99.90
2023-05-02T10:17:14.537Z,99.90
2023-05-02T10:20:01.416Z,99.90
2023-05-02T10:22:28.724Z,99.90
2023-05-02T10:24:59.825Z,99.90
2023-05-02T10:27:30.271Z,99.90
2023-05-02T10:30:01.719Z,99.90
2023-05-02T10:32:32.664Z,99.90
2023-05-02T10:35:05.217Z,99.90
2023-05-02T10:37:36.054Z,99.90
2023-05-02T10:40:04.732Z,99.90
2023-05-02T10:42:40.005Z,99.90
2023-05-02T10:45:38.182Z,99.90
2023-05-02T10:48:25.220Z,99.90
2023-05-02T10:50:54.297Z,99.90
2023-05-02T10:53:35.420Z,99.90
2023-05-02T10:56:11.319Z,99.90
2023-05-02T10:58:38.190Z,99.90
2023-05-02T11:01:25.710Z,99.90
2023-05-02T11:04:23.772Z,99.90
2023-05-02T11:06:59.521Z,99.90
2023-05-02T11:09:29.135Z,99.90
2023-05-02T11:11:56.576Z,99.90
2023-05-02T11:14:26.403Z,99.90
2023-05-02T11:16:59.257Z,99.90
2023-05-02T11:19:31.377Z,99.90
2023-05-02T11:22:18.677Z,99.90
2023-05-02T11:24:47.321Z,99.90
2023-05-02T11:27:29.807Z,99.90
2023-05-02T11:30:00.315Z,99.90
2023-05-02T11:32:45.394Z,99.90
2023-05-02T11:35:19.507Z,99.90
2023-05-02T11:38:07.700Z,99.90
2023-05-02T11:40:34.565Z,99.90
2023-05-02T11:43:12.469Z,99.90
2023-05-02T11:45:39.274Z,99.90
2023-05-02T11:48:07.209Z,99.90
2023-05-02T11:50:46.674Z,99.90
2023-05-02T11:53:18.271Z,99.90
2023-05-02T11:55:46.936Z,99.90
2023-05-02T11:58:14.997Z,99.90
2023-05-02T12:00:42.671Z,99.90
2023-05-02T12:03:18.816Z,99.90
2023-05-02T12:05:46.210Z,99.90
2023-05-02T12:08:19.406Z,99.90
2023-05-02T12:10:46.231Z,99.90
2023-05-02T12:13:13.162Z,99.90
2023-05-02T12:15:40.664Z,99.90
2023-05-02T12:18:07.956Z,99.90
2023-05-02T12:20:35.360Z,99.90
2023-05-02T12:23:02.393Z,99.90
2023-05-02T12:25:29.206Z,99.90
2023-05-02T12:28:03.201Z,99.90
2023-05-02T12:30:31.629Z,99.90
2023-05-02T12:33:01.329Z,99.90
2023-05-02T12:35:34.102Z,99.90
2023-05-02T12:38:19.867Z,99.90
2023-05-02T12:40:54.691Z,99.90
2023-05-02T12:43:21.679Z,99.90
2023-05-02T12:45:50.548Z,99.90
2023-05-02T12:48:28.235Z,99.90
2023-05-02T12:50:55.828Z,99.90
2023-05-02T12:53:41.966Z,99.90
2023-05-02T12:56:08.904Z,99.90
2023-05-02T12:58:47.772Z,99.90
2023-05-02T13:01:15.941Z,99.90
2023-05-02T13:03:44.390Z,99.90
2023-05-02T13:06:12.539Z,99.90
2023-05-02T13:08:39.413Z,99.90
2023-05-02T13:11:07.236Z,99.90
2023-05-02T13:13:35.175Z,99.90
2023-05-02T13:16:05.072Z,99.90
2023-05-02T13:18:32.013Z,99.90
2023-05-02T13:20:58.767Z,99.90
2023-05-02T13:23:25.499Z,99.90
2023-05-02T13:25:52.198Z,99.90
2023-05-02T13:28:19.098Z,99.90
2023-05-02T13:30:45.804Z,99.90
2023-05-02T13:33:12.934Z,99.70
2023-05-02T13:35:39.849Z,99.90
2023-05-02T13:38:06.628Z,99.70
2023-05-02T13:40:33.301Z,99.00
2023-05-02T13:43:01.520Z,99.10
2023-05-02T13:45:28.277Z,99.10
2023-05-02T13:47:55.448Z,99.30
2023-05-02T13:50:22.202Z,99.30
2023-05-02T13:52:51.046Z,99.20
2023-05-02T13:55:27.097Z,99.10
2023-05-02T13:57:55.505Z,98.80
2023-05-02T14:00:22.301Z,99.00
2023-05-02T14:02:49.128Z,99.10
2023-05-02T14:05:16.117Z,99.40
2023-05-02T14:07:42.899Z,99.20
2023-05-02T14:10:09.938Z,99.00
2023-05-02T14:12:36.748Z,97.50
2023-05-02T14:15:04.222Z,97.30
2023-05-02T14:17:31.461Z,97.60
2023-05-02T14:19:58.900Z,96.50
2023-05-02T14:22:26.913Z,95.30
2023-05-02T14:24:54.916Z,94.80
2023-05-02T14:27:21.770Z,93.90
2023-05-02T14:29:51.332Z,93.80
2023-05-02T14:32:18.024Z,94.20
2023-05-02T14:34:45.016Z,94.80
2023-05-02T14:37:11.708Z,94.80
2023-05-02T14:39:38.451Z,94.90
2023-05-02T14:42:05.188Z,94.40
2023-05-02T14:44:32.077Z,94.90
2023-05-02T14:47:01.396Z,95.20
2023-05-02T14:49:28.162Z,95.50
2023-05-02T14:51:56.403Z,95.90
2023-05-02T14:54:28.925Z,96.40
2023-05-02T14:56:55.873Z,97.10
2023-05-02T14:59:22.931Z,96.80
2023-05-02T15:01:53.720Z,96.70
2023-05-02T15:04:21.778Z,96.80
2023-05-02T15:06:48.798Z,96.80
2023-05-02T15:09:15.576Z,97.10
2023-05-02T15:11:44.323Z,97.70
2023-05-02T15:14:14.799Z,97.80
2023-05-02T15:16:43.509Z,97.70
2023-05-02T15:19:10.406Z,97.50
2023-05-02T15:21:38.397Z,97.60
2023-05-02T15:24:05.981Z,97.20
2023-05-02T15:26:33.294Z,97.60
2023-05-02T15:28:59.989Z,97.40
2023-05-02T15:31:26.774Z,97.60
2023-05-02T15:33:54.043Z,97.20
2023-05-02T15:36:21.030Z,97.50
2023-05-02T15:38:47.693Z,96.90
2023-05-02T15:41:14.462Z,96.70
2023-05-02T15:43:41.224Z,96.40
2023-05-02T15:46:08.005Z,96.60
2023-05-02T15:48:34.956Z,96.20
2023-05-02T15:51:01.879Z,95.90
2023-05-02T15:53:29.213Z,95.80
2023-05-02T15:55:57.551Z,95.10
2023-05-02T15:58:26.683Z,95.20
2023-05-02T16:00:54.589Z,94.30
2023-05-02T16:03:21.573Z,93.30
2023-05-02T16:05:48.637Z,92.20
2023-05-02T16:08:15.368Z,92.20
2023-05-02T16:10:42.059Z,91.70
2023-05-02T16:13:09.117Z,91.80
2023-05-02T16:15:35.806Z,91.40
2023-05-02T16:18:02.805Z,91.00
2023-05-02T16:20:29.536Z,90.70
2023-05-02T16:22:56.293Z,90.40
2023-05-02T16:25:23.184Z,89.50
2023-05-02T16:27:49.998Z,88.10
2023-05-02T16:30:17.911Z,87.10
2023-05-02T16:32:45.762Z,87.20
2023-05-02T16:35:13.831Z,88.10
2023-05-02T16:37:41.450Z,87.20
2023-05-02T16:40:10.417Z,86.90
2023-05-02T16:42:48.359Z,86.20
2023-05-02T16:45:16.427Z,85.80
2023-05-02T16:47:45.704Z,85.20
2023-05-02T16:50:17.160Z,84.90
2023-05-02T16:52:45.968Z,84.40
2023-05-02T16:55:12.661Z,84.60
2023-05-02T16:57:39.356Z,84.40
2023-05-02T17:00:07.743Z,84.50
2023-05-02T17:02:34.525Z,84.70
2023-05-02T17:05:01.350Z,85.70
2023-05-02T17:07:28.113Z,84.80
2023-05-02T17:09:57.481Z,84.30
2023-05-02T17:12:24.350Z,83.50
2023-05-02T17:14:51.148Z,83.10
2023-05-02T17:17:19.095Z,83.50
2023-05-02T17:19:45.864Z,82.80
2023-05-02T17:22:14.048Z,83.40
2023-05-02T17:24:41.082Z,82.80
2023-05-02T17:27:08.993Z,82.90
2023-05-02T17:29:35.729Z,82.20
2023-05-02T17:32:03.109Z,81.10
2023-05-02T17:34:29.921Z,81.50
2023-05-02T17:36:56.663Z,81.80
2023-05-02T17:39:23.610Z,82.00
2023-05-02T17:41:50.502Z,82.20
2023-05-02T17:44:17.242Z,82.20
2023-05-02T17:46:44.025Z,82.10
2023-05-02T17:49:10.895Z,84.00
2023-05-02T17:51:37.664Z,84.20
2023-05-02T17:54:05.886Z,84.80
2023-05-02T17:56:32.535Z,85.00
2023-05-02T17:58:59.506Z,85.10
2023-05-02T18:01:28.839Z,85.20
2023-05-02T18:03:55.848Z,84.70
2023-05-02T18:06:25.400Z,84.70
2023-05-02T18:08:53.299Z,85.00
2023-05-02T18:11:20.729Z,84.10
2023-05-02T18:13:47.463Z,84.50
2023-05-02T18:16:14.378Z,85.00
2023-05-02T18:18:41.577Z,85.10
2023-05-02T18:21:08.305Z,84.90
2023-05-02T18:23:35.389Z,85.50
2023-05-02T18:26:02.128Z,85.50
2023-05-02T18:28:28.939Z,85.30
2023-05-02T18:30:55.683Z,85.40
2023-05-02T18:33:22.428Z,84.70
2023-05-02T18:35:50.257Z,85.00
2023-05-02T18:38:17.604Z,83.90
2023-05-02T18:40:48.410Z,83.50
2023-05-02T18:43:16.560Z,83.30
2023-05-02T18:45:43.382Z,83.70
2023-05-02T18:48:20.870Z,83.20
2023-05-02T18:50:58.665Z,83.50
2023-05-02T18:53:27.515Z,83.20
2023-05-02T18:55:57.103Z,83.60
2023-05-02T18:58:24.256Z,83.70
2023-05-02T19:00:51.015Z,83.50
2023-05-02T19:03:18.025Z,83.40
2023-05-02T19:05:45.033Z,83.50
2023-05-02T19:08:11.949Z,84.10
2023-05-02T19:10:38.900Z,83.50
2023-05-02T19:13:05.680Z,83.70
2023-05-02T19:15:33.824Z,82.60
2023-05-02T19:18:00.835Z,82.50
2023-05-02T19:20:27.952Z,82.90
2023-05-02T19:23:07.085Z,83.00
2023-05-02T19:25:42.594Z,83.10
2023-05-02T19:28:10.764Z,83.50
2023-05-02T19:30:42.143Z,83.80
2023-05-02T19:33:13.807Z,84.10
2023-05-02T19:35:41.610Z,83.60
2023-05-02T19:38:08.290Z,84.00
2023-05-02T19:40:34.981Z,84.30
2023-05-02T19:43:01.889Z,84.70
2023-05-02T19:45:35.798Z,84.90
2023-05-02T19:48:04.521Z,85.20
2023-05-02T19:50:45.780Z,85.20
2023-05-02T19:53:12.924Z,85.70
2023-05-02T19:55:52.930Z,86.20
2023-05-02T19:58:25.100Z,86.60
2023-05-02T20:00:57.484Z,87.00
2023-05-02T20:03:27.527Z,87.30
2023-05-02T20:05:56.668Z,88.10
2023-05-02T20:08:24.749Z,88.50
2023-05-02T20:10:54.650Z,89.30
2023-05-02T20:13:21.463Z,89.70
2023-05-02T20:15:52.210Z,89.80
2023-05-02T20:18:21.501Z,90.10
2023-05-02T20:20:51.032Z,90.20
2023-05-02T20:23:18.130Z,90.30
2023-05-02T20:25:45.211Z,89.90
2023-05-02T20:28:12.129Z,90.00
2023-05-02T20:30:42.062Z,90.20
2023-05-02T20:33:15.371Z,90.40
2023-05-02T20:35:47.594Z,90.60
2023-05-02T20:38:16.721Z,91.20
2023-05-02T20:40:45.483Z,91.30
2023-05-02T20:43:12.366Z,91.60
2023-05-02T20:45:39.313Z,91.80
2023-05-02T20:48:06.324Z,91.90
2023-05-02T20:50:34.746Z,92.10
2023-05-02T20:53:02.174Z,92.30
2023-05-02T20:55:30.486Z,92.30
2023-05-02T20:57:59.614Z,92.50
2023-05-02T21:00:27.047Z,92.80
2023-05-02T21:02:54.271Z,92.90
2023-05-02T21:05:25.870Z,93.00
2023-05-02T21:07:53.423Z,93.10
2023-05-02T21:10:20.180Z,93.50
2023-05-02T21:12:48.278Z,93.60
2023-05-02T21:15:15.256Z,93.70
2023-05-02T21:17:41.962Z,93.80
2023-05-02T21:20:09.073Z,94.00
2023-05-02T21:22:36.495Z,94.20
2023-05-02T21:25:05.010Z,94.20
2023-05-02T21:27:32.102Z,94.30
2023-05-02T21:29:59.272Z,94.40
2023-05-02T21:32:26.085Z,94.60
2023-05-02T21:34:52.884Z,94.80
2023-05-02T21:37:20.943Z,94.90
2023-05-02T21:39:49.037Z,95.10
2023-05-02T21:42:17.059Z,95.40
2023-05-02T21:44:43.763Z,95.00
2023-05-02T21:47:10.541Z,94.80
2023-05-02T21:49:41.179Z,94.90
2023-05-02T21:52:10.209Z,95.00
2023-05-02T21:54:36.974Z,95.10
2023-05-02T21:57:03.759Z,94.90
2023-05-02T21:59:30.568Z,94.90
2023-05-02T22:01:57.334Z,94.80
2023-05-02T22:04:24.226Z,95.00
2023-05-02T22:06:52.233Z,95.10
2023-05-02T22:09:19.910Z,95.00
2023-05-02T22:11:46.893Z,95.10
2023-05-02T22:14:14.771Z,95.10
2023-05-02T22:16:41.600Z,95.10
2023-05-02T22:19:10.656Z,95.30
2023-05-02T22:21:38.755Z,95.30
2023-05-02T22:24:05.867Z,95.10
2023-05-02T22:26:33.593Z,95.00
2023-05-02T22:29:01.706Z,95.00
2023-05-02T22:31:28.387Z,95.10
2023-05-02T22:33:55.102Z,95.00
2023-05-02T22:36:21.843Z,95.10
2023-05-02T22:38:48.497Z,95.00
2023-05-02T22:41:15.262Z,94.90
2023-05-02T22:43:41.946Z,95.00
2023-05-02T22:46:08.649Z,95.00
2023-05-02T22:48:35.430Z,95.00
2023-05-02T22:51:03.949Z,95.00
2023-05-02T22:53:30.618Z,95.00
2023-05-02T22:55:57.309Z,95.00
2023-05-02T22:58:24.061Z,95.00
2023-05-02T23:00:50.751Z,94.80
2023-05-02T23:03:17.578Z,94.70
2023-05-02T23:05:44.318Z,94.60
2023-05-02T23:08:11.019Z,94.50
2023-05-02T23:10:37.799Z,94.50
2023-05-02T23:13:04.486Z,94.20
2023-05-02T23:15:31.141Z,94.20
2023-05-02T23:17:57.886Z,94.20
2023-05-02T23:20:24.601Z,94.10
2023-05-02T23:22:51.299Z,94.10
2023-05-02T23:25:19.777Z,94.00
2023-05-02T23:27:47.474Z,94.00
2023-05-02T23:30:15.322Z,94.20
2023-05-02T23:32:48.682Z,94.30
2023-05-02T23:35:15.562Z,94.20
2023-05-02T23:37:42.304Z,94.00
2023-05-02T23:40:09.372Z,94.00
2023-05-02T23:42:36.481Z,94.00
2023-05-02T23:45:08.839Z,93.90
2023-05-02T23:47:36.517Z,93.70
2023-05-02T23:50:04.767Z,93.70
2023-05-02T23:52:31.626Z,93.80
2023-05-02T23:54:58.292Z,93.90
2023-05-02T23:57:24.978Z,93.90
2023-05-02T23:59:51.807Z,93.90
